sensor_id;sensor_type;location;lat;lon;timestamp;pressure;altitude;pressure_sealevel;temperature;humidity
54850;BME280;47660;51.334;12.396;2022-11-10T00:00:54;100254.88;;;14.05;100.00
54850;BME280;47660;51.334;12.396;2022-11-10T00:03:20;100247.19;;;14.23;100.00
54850;BME280;47660;51.334;12.396;2022-11-10T00:05:45;100259.13;;;14.08;100.00
54850;BME280;47660;51.334;12.396;2022-11-10T00:08:11;100265.69;;;14.04;100.00
54850;BME280;47660;51.334;12.396;2022-11-10T00:10:39;100266.28;;;14.07;100.00
54850;BME280;47660;51.334;12.396;2022-11-10T00:13:24;100271.53;;;14.09;100.00
54850;BME280;47660;51.334;12.396;2022-11-10T00:15:49;100269.94;;;14.06;100.00
54850;BME280;47660;51.334;12.396;2022-11-10T00:18:33;100276.00;;;14.08;100.00
54850;BME280;47660;51.334;12.396;2022-11-10T00:21:06;100281.84;;;14.25;100.00
54850;BME280;47660;51.334;12.396;2022-11-10T00:23:33;100280.50;;;14.08;100.00
54850;BME280;47660;51.334;12.396;2022-11-10T00:25:58;100286.81;;;13.95;100.00
54850;BME280;47660;51.334;12.396;2022-11-10T00:28:24;100286.34;;;14.02;100.00
54850;BME280;47660;51.334;12.396;2022-11-10T00:30:52;100282.66;;;14.25;100.00
54850;BME280;47660;51.334;12.396;2022-11-10T00:33:20;100289.50;;;14.07;100.00
54850;BME280;47660;51.334;12.396;2022-11-10T00:35:45;100296.41;;;14.21;100.00
54850;BME280;47660;51.334;12.396;2022-11-10T00:38:11;100298.47;;;14.29;100.00
54850;BME280;47660;51.334;12.396;2022-11-10T00:40:36;100295.44;;;14.10;100.00
54850;BME280;47660;51.334;12.396;2022-11-10T00:43:02;100303.81;;;13.94;100.00
54850;BME280;47660;51.334;12.396;2022-11-10T00:45:27;100310.97;;;14.05;100.00
54850;BME280;47660;51.334;12.396;2022-11-10T00:47:55;100318.38;;;13.90;100.00
54850;BME280;47660;51.334;12.396;2022-11-10T00:50:20;100314.66;;;13.93;100.00
54850;BME280;47660;51.334;12.396;2022-11-10T00:52:46;100312.78;;;13.82;100.00
54850;BME280;47660;51.334;12.396;2022-11-10T00:55:13;100328.31;;;13.65;100.00
54850;BME280;47660;51.334;12.396;2022-11-10T00:57:39;100331.28;;;13.49;100.00
54850;BME280;47660;51.334;12.396;2022-11-10T01:00:05;100327.97;;;13.70;100.00
54850;BME280;47660;51.334;12.396;2022-11-10T01:02:31;100327.34;;;13.66;100.00
54850;BME280;47660;51.334;12.396;2022-11-10T01:04:56;100322.56;;;13.47;100.00
54850;BME280;47660;51.334;12.396;2022-11-10T01:07:21;100328.56;;;13.62;100.00
54850;BME280;47660;51.334;12.396;2022-11-10T01:09:47;100332.69;;;13.78;100.00
54850;BME280;47660;51.334;12.396;2022-11-10T01:12:12;100336.56;;;13.62;100.00
54850;BME280;47660;51.334;12.396;2022-11-10T01:14:38;100338.16;;;13.41;100.00
54850;BME280;47660;51.334;12.396;2022-11-10T01:17:04;100343.22;;;13.45;100.00
54850;BME280;47660;51.334;12.396;2022-11-10T01:19:31;100349.06;;;13.37;100.00
54850;BME280;47660;51.334;12.396;2022-11-10T01:21:57;100344.03;;;13.21;100.00
54850;BME280;47660;51.334;12.396;2022-11-10T01:24:27;100346.72;;;13.21;100.00
54850;BME280;47660;51.334;12.396;2022-11-10T01:26:53;100356.53;;;13.21;100.00
54850;BME280;47660;51.334;12.396;2022-11-10T01:29:20;100354.53;;;13.36;100.00
54850;BME280;47660;51.334;12.396;2022-11-10T01:31:48;100350.91;;;13.37;100.00
54850;BME280;47660;51.334;12.396;2022-11-10T01:34:13;100355.16;;;13.15;100.00
54850;BME280;47660;51.334;12.396;2022-11-10T01:36:39;100361.75;;;13.22;100.00
54850;BME280;47660;51.334;12.396;2022-11-10T01:39:04;100355.06;;;13.41;100.00
54850;BME280;47660;51.334;12.396;2022-11-10T01:41:30;100363.97;;;13.29;100.00
54850;BME280;47660;51.334;12.396;2022-11-10T01:44:11;100368.63;;;13.38;100.00
54850;BME280;47660;51.334;12.396;2022-11-10T01:46:39;100366.72;;;13.16;100.00
54850;BME280;47660;51.334;12.396;2022-11-10T01:49:05;100366.13;;;13.23;100.00
54850;BME280;47660;51.334;12.396;2022-11-10T01:51:38;100371.59;;;13.22;100.00
54850;BME280;47660;51.334;12.396;2022-11-10T01:54:09;100373.75;;;13.17;100.00
54850;BME280;47660;51.334;12.396;2022-11-10T01:56:47;100381.84;;;13.15;100.00
54850;BME280;47660;51.334;12.396;2022-11-10T01:59:18;100379.59;;;13.22;100.00
54850;BME280;47660;51.334;12.396;2022-11-10T02:01:47;100388.22;;;13.26;100.00
54850;BME280;47660;51.334;12.396;2022-11-10T02:04:16;100385.31;;;13.29;100.00
54850;BME280;47660;51.334;12.396;2022-11-10T02:06:45;100386.38;;;13.26;100.00
54850;BME280;47660;51.334;12.396;2022-11-10T02:09:11;100396.28;;;13.13;100.00
54850;BME280;47660;51.334;12.396;2022-11-10T02:11:38;100403.88;;;13.06;100.00
54850;BME280;47660;51.334;12.396;2022-11-10T02:14:05;100399.09;;;12.98;100.00
54850;BME280;47660;51.334;12.396;2022-11-10T02:16:33;100406.22;;;13.11;100.00
54850;BME280;47660;51.334;12.396;2022-11-10T02:19:18;100412.59;;;13.21;100.00
54850;BME280;47660;51.334;12.396;2022-11-10T02:21:47;100411.84;;;12.82;100.00
54850;BME280;47660;51.334;12.396;2022-11-10T02:24:13;100408.41;;;12.92;100.00
54850;BME280;47660;51.334;12.396;2022-11-10T02:26:52;100409.91;;;12.97;100.00
54850;BME280;47660;51.334;12.396;2022-11-10T02:29:24;100410.59;;;13.12;100.00
54850;BME280;47660;51.334;12.396;2022-11-10T02:31:49;100416.59;;;13.02;100.00
54850;BME280;47660;51.334;12.396;2022-11-10T02:34:18;100423.38;;;13.19;100.00
54850;BME280;47660;51.334;12.396;2022-11-10T02:36:43;100422.75;;;13.16;100.00
54850;BME280;47660;51.334;12.396;2022-11-10T02:39:09;100421.41;;;12.97;100.00
54850;BME280;47660;51.334;12.396;2022-11-10T02:41:34;100423.50;;;13.05;100.00
54850;BME280;47660;51.334;12.396;2022-11-10T02:44:00;100416.66;;;12.89;100.00
54850;BME280;47660;51.334;12.396;2022-11-10T02:46:29;100421.78;;;12.80;100.00
54850;BME280;47660;51.334;12.396;2022-11-10T02:48:54;100426.25;;;12.79;100.00
54850;BME280;47660;51.334;12.396;2022-11-10T02:51:22;100420.75;;;12.69;100.00
54850;BME280;47660;51.334;12.396;2022-11-10T02:53:47;100425.59;;;12.88;100.00
54850;BME280;47660;51.334;12.396;2022-11-10T02:56:16;100434.81;;;12.71;100.00
54850;BME280;47660;51.334;12.396;2022-11-10T02:58:44;100433.53;;;12.77;100.00
54850;BME280;47660;51.334;12.396;2022-11-10T03:01:09;100437.88;;;12.91;100.00
54850;BME280;47660;51.334;12.396;2022-11-10T03:03:37;100433.09;;;12.83;100.00
54850;BME280;47660;51.334;12.396;2022-11-10T03:06:03;100446.97;;;12.62;100.00
54850;BME280;47660;51.334;12.396;2022-11-10T03:08:29;100446.03;;;12.51;100.00
54850;BME280;47660;51.334;12.396;2022-11-10T03:10:55;100451.03;;;12.55;100.00
54850;BME280;47660;51.334;12.396;2022-11-10T03:13:22;100453.81;;;12.67;100.00
54850;BME280;47660;51.334;12.396;2022-11-10T03:15:48;100449.13;;;12.70;100.00
54850;BME280;47660;51.334;12.396;2022-11-10T03:18:14;100459.13;;;12.67;100.00
54850;BME280;47660;51.334;12.396;2022-11-10T03:20:39;100459.78;;;12.57;100.00
54850;BME280;47660;51.334;12.396;2022-11-10T03:23:05;100471.41;;;12.30;100.00
54850;BME280;47660;51.334;12.396;2022-11-10T03:25:31;100476.00;;;12.41;100.00
54850;BME280;47660;51.334;12.396;2022-11-10T03:28:00;100467.25;;;12.26;100.00
54850;BME280;47660;51.334;12.396;2022-11-10T03:30:25;100474.34;;;12.00;100.00
54850;BME280;47660;51.334;12.396;2022-11-10T03:32:51;100476.41;;;12.22;100.00
54850;BME280;47660;51.334;12.396;2022-11-10T03:35:19;100476.66;;;12.45;100.00
54850;BME280;47660;51.334;12.396;2022-11-10T03:37:45;100483.91;;;12.43;100.00
54850;BME280;47660;51.334;12.396;2022-11-10T03:40:13;100486.91;;;12.51;100.00
54850;BME280;47660;51.334;12.396;2022-11-10T03:42:42;100488.09;;;12.07;100.00
54850;BME280;47660;51.334;12.396;2022-11-10T03:45:10;100489.66;;;12.24;100.00
54850;BME280;47660;51.334;12.396;2022-11-10T03:47:38;100502.53;;;12.30;100.00
54850;BME280;47660;51.334;12.396;2022-11-10T03:50:04;100504.47;;;12.28;100.00
54850;BME280;47660;51.334;12.396;2022-11-10T03:52:30;100509.34;;;12.34;100.00
54850;BME280;47660;51.334;12.396;2022-11-10T03:54:55;100508.19;;;12.25;100.00
54850;BME280;47660;51.334;12.396;2022-11-10T03:57:23;100517.34;;;12.21;100.00
54850;BME280;47660;51.334;12.396;2022-11-10T03:59:51;100512.41;;;12.02;100.00
54850;BME280;47660;51.334;12.396;2022-11-10T04:02:17;100511.75;;;11.98;100.00
54850;BME280;47660;51.334;12.396;2022-11-10T04:04:42;100524.25;;;12.11;100.00
54850;BME280;47660;51.334;12.396;2022-11-10T04:07:26;100519.88;;;12.10;100.00
54850;BME280;47660;51.334;12.396;2022-11-10T04:10:10;100525.72;;;12.02;100.00
54850;BME280;47660;51.334;12.396;2022-11-10T04:12:35;100535.63;;;12.00;100.00
54850;BME280;47660;51.334;12.396;2022-11-10T04:15:19;100531.81;;;12.04;100.00
54850;BME280;47660;51.334;12.396;2022-11-10T04:18:03;100536.66;;;11.97;100.00
54850;BME280;47660;51.334;12.396;2022-11-10T04:20:47;100542.47;;;12.04;100.00
54850;BME280;47660;51.334;12.396;2022-11-10T04:23:14;100551.94;;;11.81;100.00
54850;BME280;47660;51.334;12.396;2022-11-10T04:25:59;100548.13;;;12.12;100.00
54850;BME280;47660;51.334;12.396;2022-11-10T04:28:49;100557.97;;;11.97;100.00
54850;BME280;47660;51.334;12.396;2022-11-10T04:31:19;100557.97;;;11.70;100.00
54850;BME280;47660;51.334;12.396;2022-11-10T04:33:46;100570.06;;;11.88;100.00
54850;BME280;47660;51.334;12.396;2022-11-10T04:36:14;100570.50;;;12.10;100.00
54850;BME280;47660;51.334;12.396;2022-11-10T04:38:40;100572.09;;;11.99;100.00
54850;BME280;47660;51.334;12.396;2022-11-10T04:41:06;100582.09;;;12.09;100.00
54850;BME280;47660;51.334;12.396;2022-11-10T04:43:34;100590.09;;;12.09;100.00
54850;BME280;47660;51.334;12.396;2022-11-10T04:46:00;100587.78;;;12.17;100.00
54850;BME280;47660;51.334;12.396;2022-11-10T04:48:27;100588.50;;;11.92;100.00
54850;BME280;47660;51.334;12.396;2022-11-10T04:50:53;100592.28;;;12.16;100.00
54850;BME280;47660;51.334;12.396;2022-11-10T04:53:19;100595.34;;;11.96;100.00
54850;BME280;47660;51.334;12.396;2022-11-10T04:55:45;100600.22;;;12.03;100.00
54850;BME280;47660;51.334;12.396;2022-11-10T04:58:11;100593.84;;;11.92;100.00
54850;BME280;47660;51.334;12.396;2022-11-10T05:00:37;100600.94;;;12.06;100.00
54850;BME280;47660;51.334;12.396;2022-11-10T05:03:05;100596.84;;;11.72;100.00
54850;BME280;47660;51.334;12.396;2022-11-10T05:05:31;100599.06;;;11.66;100.00
54850;BME280;47660;51.334;12.396;2022-11-10T05:07:57;100607.16;;;11.92;100.00
54850;BME280;47660;51.334;12.396;2022-11-10T05:10:23;100607.06;;;11.51;100.00
54850;BME280;47660;51.334;12.396;2022-11-10T05:12:52;100605.72;;;11.73;100.00
54850;BME280;47660;51.334;12.396;2022-11-10T05:15:20;100611.66;;;11.91;100.00
54850;BME280;47660;51.334;12.396;2022-11-10T05:17:50;100619.50;;;11.65;100.00
54850;BME280;47660;51.334;12.396;2022-11-10T05:20:17;100618.16;;;11.58;100.00
54850;BME280;47660;51.334;12.396;2022-11-10T05:22:46;100616.81;;;11.80;100.00
54850;BME280;47660;51.334;12.396;2022-11-10T05:25:36;100611.84;;;11.88;100.00
54850;BME280;47660;51.334;12.396;2022-11-10T05:28:03;100616.75;;;11.67;100.00
54850;BME280;47660;51.334;12.396;2022-11-10T05:30:28;100623.59;;;11.71;100.00
54850;BME280;47660;51.334;12.396;2022-11-10T05:32:54;100629.06;;;11.82;100.00
54850;BME280;47660;51.334;12.396;2022-11-10T05:35:22;100631.66;;;11.69;100.00
54850;BME280;47660;51.334;12.396;2022-11-10T05:37:49;100636.03;;;11.70;100.00
54850;BME280;47660;51.334;12.396;2022-11-10T05:40:14;100644.72;;;11.59;100.00
54850;BME280;47660;51.334;12.396;2022-11-10T05:42:48;100648.59;;;11.68;100.00
54850;BME280;47660;51.334;12.396;2022-11-10T05:45:16;100657.94;;;11.32;100.00
54850;BME280;47660;51.334;12.396;2022-11-10T05:47:41;100667.72;;;11.75;100.00
54850;BME280;47660;51.334;12.396;2022-11-10T05:50:07;100669.63;;;11.58;100.00
54850;BME280;47660;51.334;12.396;2022-11-10T05:52:34;100669.06;;;11.68;100.00
54850;BME280;47660;51.334;12.396;2022-11-10T05:54:59;100675.63;;;11.48;100.00
54850;BME280;47660;51.334;12.396;2022-11-10T05:57:27;100682.28;;;11.55;100.00
54850;BME280;47660;51.334;12.396;2022-11-10T05:59:53;100684.22;;;11.80;100.00
54850;BME280;47660;51.334;12.396;2022-11-10T06:02:18;100690.53;;;11.79;100.00
54850;BME280;47660;51.334;12.396;2022-11-10T06:04:46;100705.00;;;11.75;100.00
54850;BME280;47660;51.334;12.396;2022-11-10T06:07:12;100704.31;;;11.57;100.00
54850;BME280;47660;51.334;12.396;2022-11-10T06:09:37;100716.59;;;11.59;100.00
54850;BME280;47660;51.334;12.396;2022-11-10T06:12:03;100720.38;;;11.55;100.00
54850;BME280;47660;51.334;12.396;2022-11-10T06:14:31;100731.03;;;11.55;100.00
54850;BME280;47660;51.334;12.396;2022-11-10T06:17:01;100730.38;;;11.66;100.00
54850;BME280;47660;51.334;12.396;2022-11-10T06:19:27;100742.28;;;11.75;100.00
54850;BME280;47660;51.334;12.396;2022-11-10T06:21:54;100731.63;;;11.75;100.00
54850;BME280;47660;51.334;12.396;2022-11-10T06:24:20;100741.38;;;11.60;100.00
54850;BME280;47660;51.334;12.396;2022-11-10T06:26:47;100740.19;;;11.66;100.00
54850;BME280;47660;51.334;12.396;2022-11-10T06:29:13;100749.84;;;11.52;100.00
54850;BME280;47660;51.334;12.396;2022-11-10T06:31:38;100756.22;;;11.64;100.00
54850;BME280;47660;51.334;12.396;2022-11-10T06:34:03;100759.94;;;11.62;100.00
54850;BME280;47660;51.334;12.396;2022-11-10T06:36:29;100766.38;;;11.43;100.00
54850;BME280;47660;51.334;12.396;2022-11-10T06:38:57;100773.84;;;11.67;100.00
54850;BME280;47660;51.334;12.396;2022-11-10T06:41:22;100783.72;;;11.65;100.00
54850;BME280;47660;51.334;12.396;2022-11-10T06:43:50;100790.19;;;11.61;100.00
54850;BME280;47660;51.334;12.396;2022-11-10T06:46:15;100798.06;;;11.62;100.00
54850;BME280;47660;51.334;12.396;2022-11-10T06:48:43;100788.66;;;11.56;100.00
54850;BME280;47660;51.334;12.396;2022-11-10T06:51:08;100792.91;;;11.44;100.00
54850;BME280;47660;51.334;12.396;2022-11-10T06:53:36;100800.63;;;11.49;100.00
54850;BME280;47660;51.334;12.396;2022-11-10T06:56:01;100807.25;;;11.42;100.00
54850;BME280;47660;51.334;12.396;2022-11-10T06:58:26;100809.47;;;11.50;100.00
54850;BME280;47660;51.334;12.396;2022-11-10T07:00:52;100819.47;;;11.61;100.00
54850;BME280;47660;51.334;12.396;2022-11-10T07:03:17;100828.25;;;11.32;100.00
54850;BME280;47660;51.334;12.396;2022-11-10T07:05:43;100822.47;;;11.40;100.00
54850;BME280;47660;51.334;12.396;2022-11-10T07:08:11;100828.28;;;11.47;100.00
54850;BME280;47660;51.334;12.396;2022-11-10T07:10:49;100840.91;;;11.43;100.00
54850;BME280;47660;51.334;12.396;2022-11-10T07:13:15;100844.28;;;11.61;100.00
54850;BME280;47660;51.334;12.396;2022-11-10T07:15:41;100853.03;;;11.63;100.00
54850;BME280;47660;51.334;12.396;2022-11-10T07:18:07;100850.09;;;11.68;100.00
54850;BME280;47660;51.334;12.396;2022-11-10T07:20:33;100856.56;;;11.64;100.00
54850;BME280;47660;51.334;12.396;2022-11-10T07:23:03;100859.06;;;11.96;100.00
54850;BME280;47660;51.334;12.396;2022-11-10T07:25:31;100870.06;;;11.61;100.00
54850;BME280;47660;51.334;12.396;2022-11-10T07:28:02;100856.97;;;11.86;100.00
54850;BME280;47660;51.334;12.396;2022-11-10T07:30:30;100873.00;;;11.70;100.00
54850;BME280;47660;51.334;12.396;2022-11-10T07:33:06;100876.31;;;12.04;100.00
54850;BME280;47660;51.334;12.396;2022-11-10T07:35:33;100877.31;;;11.73;100.00
54850;BME280;47660;51.334;12.396;2022-11-10T07:38:05;100891.13;;;11.80;100.00
54850;BME280;47660;51.334;12.396;2022-11-10T07:40:33;100891.84;;;11.67;100.00
54850;BME280;47660;51.334;12.396;2022-11-10T07:42:59;100901.06;;;11.62;100.00
54850;BME280;47660;51.334;12.396;2022-11-10T07:45:25;100892.47;;;11.87;100.00
54850;BME280;47660;51.334;12.396;2022-11-10T07:47:51;100897.69;;;11.88;100.00
54850;BME280;47660;51.334;12.396;2022-11-10T07:50:17;100899.94;;;11.66;100.00
54850;BME280;47660;51.334;12.396;2022-11-10T07:52:42;100899.38;;;11.75;100.00
54850;BME280;47660;51.334;12.396;2022-11-10T07:55:08;100915.56;;;11.72;100.00
54850;BME280;47660;51.334;12.396;2022-11-10T07:57:34;100916.06;;;11.93;100.00
54850;BME280;47660;51.334;12.396;2022-11-10T07:59:59;100924.78;;;12.11;100.00
54850;BME280;47660;51.334;12.396;2022-11-10T08:02:25;100926.97;;;11.88;100.00
54850;BME280;47660;51.334;12.396;2022-11-10T08:04:51;100928.28;;;12.12;100.00
54850;BME280;47660;51.334;12.396;2022-11-10T08:07:16;100932.78;;;12.11;100.00
54850;BME280;47660;51.334;12.396;2022-11-10T08:09:42;100934.19;;;12.02;100.00
54850;BME280;47660;51.334;12.396;2022-11-10T08:12:10;100944.56;;;12.07;100.00
54850;BME280;47660;51.334;12.396;2022-11-10T08:14:36;100950.69;;;12.24;100.00
54850;BME280;47660;51.334;12.396;2022-11-10T08:17:01;100943.16;;;12.16;100.00
54850;BME280;47660;51.334;12.396;2022-11-10T08:19:29;100950.31;;;12.59;100.00
54850;BME280;47660;51.334;12.396;2022-11-10T08:22:00;100949.81;;;12.67;100.00
54850;BME280;47660;51.334;12.396;2022-11-10T08:24:27;100963.84;;;12.56;100.00
54850;BME280;47660;51.334;12.396;2022-11-10T08:26:53;100967.44;;;12.40;100.00
54850;BME280;47660;51.334;12.396;2022-11-10T08:29:18;100970.59;;;12.47;100.00
54850;BME280;47660;51.334;12.396;2022-11-10T08:31:44;100965.25;;;12.90;100.00
54850;BME280;47660;51.334;12.396;2022-11-10T08:34:09;100970.22;;;12.82;100.00
54850;BME280;47660;51.334;12.396;2022-11-10T08:36:35;100981.25;;;12.90;100.00
54850;BME280;47660;51.334;12.396;2022-11-10T08:39:02;100976.88;;;12.75;100.00
54850;BME280;47660;51.334;12.396;2022-11-10T08:41:27;100981.00;;;12.66;100.00
54850;BME280;47660;51.334;12.396;2022-11-10T08:43:53;100995.66;;;12.59;100.00
54850;BME280;47660;51.334;12.396;2022-11-10T08:46:20;100998.97;;;12.77;100.00
54850;BME280;47660;51.334;12.396;2022-11-10T08:48:51;100992.19;;;12.86;100.00
54850;BME280;47660;51.334;12.396;2022-11-10T08:51:19;100989.91;;;12.94;100.00
54850;BME280;47660;51.334;12.396;2022-11-10T08:53:45;100991.78;;;13.21;100.00
54850;BME280;47660;51.334;12.396;2022-11-10T08:56:11;100995.13;;;13.10;100.00
54850;BME280;47660;51.334;12.396;2022-11-10T08:58:36;100998.88;;;12.93;100.00
54850;BME280;47660;51.334;12.396;2022-11-10T09:01:07;100998.13;;;13.33;100.00
54850;BME280;47660;51.334;12.396;2022-11-10T09:03:36;101013.28;;;13.32;100.00
54850;BME280;47660;51.334;12.396;2022-11-10T09:06:04;101011.19;;;13.37;100.00
54850;BME280;47660;51.334;12.396;2022-11-10T09:08:29;101004.38;;;13.61;100.00
54850;BME280;47660;51.334;12.396;2022-11-10T09:11:00;101008.63;;;13.36;100.00
54850;BME280;47660;51.334;12.396;2022-11-10T09:13:26;101010.41;;;13.50;100.00
54850;BME280;47660;51.334;12.396;2022-11-10T09:15:54;101015.38;;;13.27;100.00
54850;BME280;47660;51.334;12.396;2022-11-10T09:18:22;101025.06;;;13.15;100.00
54850;BME280;47660;51.334;12.396;2022-11-10T09:20:50;101023.00;;;13.33;100.00
54850;BME280;47660;51.334;12.396;2022-11-10T09:23:17;101032.22;;;13.84;100.00
54850;BME280;47660;51.334;12.396;2022-11-10T09:25:48;101028.91;;;14.21;100.00
54850;BME280;47660;51.334;12.396;2022-11-10T09:28:17;101030.50;;;14.23;100.00
54850;BME280;47660;51.334;12.396;2022-11-10T09:30:44;101033.78;;;13.74;100.00
54850;BME280;47660;51.334;12.396;2022-11-10T09:33:12;101032.09;;;14.13;100.00
54850;BME280;47660;51.334;12.396;2022-11-10T09:35:38;101050.16;;;14.09;100.00
54850;BME280;47660;51.334;12.396;2022-11-10T09:38:03;101049.81;;;14.41;100.00
54850;BME280;47660;51.334;12.396;2022-11-10T09:41:00;101047.53;;;14.35;100.00
54850;BME280;47660;51.334;12.396;2022-11-10T09:43:43;101053.81;;;14.21;100.00
54850;BME280;47660;51.334;12.396;2022-11-10T09:46:23;101064.44;;;14.36;100.00
54850;BME280;47660;51.334;12.396;2022-11-10T09:48:54;101053.50;;;14.13;100.00
54850;BME280;47660;51.334;12.396;2022-11-10T09:51:28;101056.19;;;14.39;100.00
54850;BME280;47660;51.334;12.396;2022-11-10T09:54:01;101048.31;;;14.76;100.00
54850;BME280;47660;51.334;12.396;2022-11-10T09:56:33;101043.19;;;14.99;100.00
54850;BME280;47660;51.334;12.396;2022-11-10T09:58:59;101041.59;;;14.70;100.00
54850;BME280;47660;51.334;12.396;2022-11-10T10:01:37;101023.97;;;14.27;100.00
54850;BME280;47660;51.334;12.396;2022-11-10T10:07:28;101047.09;;;14.29;100.00
54850;BME280;47660;51.334;12.396;2022-11-10T10:20:44;101056.31;;;14.50;100.00
54850;BME280;47660;51.334;12.396;2022-11-10T10:23:17;101064.00;;;14.42;100.00
54850;BME280;47660;51.334;12.396;2022-11-10T10:25:47;101058.66;;;14.42;100.00
54850;BME280;47660;51.334;12.396;2022-11-10T10:28:26;101047.47;;;14.89;100.00
54850;BME280;47660;51.334;12.396;2022-11-10T10:30:58;101042.88;;;14.91;100.00
54850;BME280;47660;51.334;12.396;2022-11-10T10:33:26;101056.56;;;14.73;100.00
54850;BME280;47660;51.334;12.396;2022-11-10T10:35:52;101055.50;;;14.76;100.00
54850;BME280;47660;51.334;12.396;2022-11-10T10:38:32;101057.63;;;14.83;100.00
54850;BME280;47660;51.334;12.396;2022-11-10T10:41:11;101074.34;;;14.87;100.00
54850;BME280;47660;51.334;12.396;2022-11-10T10:43:45;101061.81;;;14.88;100.00
54850;BME280;47660;51.334;12.396;2022-11-10T10:46:13;101052.44;;;15.32;100.00
54850;BME280;47660;51.334;12.396;2022-11-10T10:48:43;101052.78;;;15.27;100.00
54850;BME280;47660;51.334;12.396;2022-11-10T10:51:27;101055.16;;;15.06;100.00
54850;BME280;47660;51.334;12.396;2022-11-10T10:53:53;101053.59;;;15.28;100.00
54850;BME280;47660;51.334;12.396;2022-11-10T10:56:23;101066.25;;;15.39;100.00
54850;BME280;47660;51.334;12.396;2022-11-10T10:59:02;101052.81;;;15.02;100.00
54850;BME280;47660;51.334;12.396;2022-11-10T11:01:37;101062.56;;;15.15;100.00
54850;BME280;47660;51.334;12.396;2022-11-10T11:04:28;101050.94;;;15.41;100.00
54850;BME280;47660;51.334;12.396;2022-11-10T11:07:13;101060.16;;;15.37;100.00
54850;BME280;47660;51.334;12.396;2022-11-10T11:09:43;101069.44;;;14.81;100.00
54850;BME280;47660;51.334;12.396;2022-11-10T11:14:44;101054.09;;;15.09;100.00
54850;BME280;47660;51.334;12.396;2022-11-10T11:17:17;101067.47;;;15.59;100.00
54850;BME280;47660;51.334;12.396;2022-11-10T11:19:43;101075.09;;;15.52;100.00
54850;BME280;47660;51.334;12.396;2022-11-10T11:30:13;101064.81;;;16.08;100.00
54850;BME280;47660;51.334;12.396;2022-11-10T11:38:14;101077.44;;;16.88;97.96
54850;BME280;47660;51.334;12.396;2022-11-10T11:43:44;101076.44;;;16.19;100.00
54850;BME280;47660;51.334;12.396;2022-11-10T11:52:15;101087.91;;;16.22;100.00
54850;BME280;47660;51.334;12.396;2022-11-10T12:00:23;101086.38;;;16.42;100.00
54850;BME280;47660;51.334;12.396;2022-11-10T12:08:25;101090.22;;;16.62;99.35
54850;BME280;47660;51.334;12.396;2022-11-10T12:13:59;101087.22;;;16.31;100.00
54850;BME280;47660;51.334;12.396;2022-11-10T12:16:33;101093.47;;;16.43;100.00
54850;BME280;47660;51.334;12.396;2022-11-10T12:21:57;101105.50;;;16.01;100.00
54850;BME280;47660;51.334;12.396;2022-11-10T12:27:17;101107.22;;;16.02;100.00
54850;BME280;47660;51.334;12.396;2022-11-10T12:29:51;101102.94;;;16.36;99.78
54850;BME280;47660;51.334;12.396;2022-11-10T12:32:27;101095.06;;;16.10;100.00
54850;BME280;47660;51.334;12.396;2022-11-10T12:40:17;101105.84;;;16.32;98.11
54850;BME280;47660;51.334;12.396;2022-11-10T12:42:46;101105.44;;;16.50;97.51
54850;BME280;47660;51.334;12.396;2022-11-10T12:48:14;101098.56;;;16.10;96.47
54850;BME280;47660;51.334;12.396;2022-11-10T12:53:20;101100.41;;;16.45;93.83
54850;BME280;47660;51.334;12.396;2022-11-10T12:58:21;101113.53;;;16.26;93.60
54850;BME280;47660;51.334;12.396;2022-11-10T13:00:57;101107.09;;;16.40;91.91
54850;BME280;47660;51.334;12.396;2022-11-10T13:06:23;101124.72;;;16.55;92.85
54850;BME280;47660;51.334;12.396;2022-11-10T13:08:49;101113.56;;;16.37;94.61
54850;BME280;47660;51.334;12.396;2022-11-10T13:16:08;101127.63;;;15.92;99.17
54850;BME280;47660;51.334;12.396;2022-11-10T13:20:59;101131.72;;;15.72;99.26
54850;BME280;47660;51.334;12.396;2022-11-10T13:29:34;101142.38;;;16.22;98.96
54850;BME280;47660;51.334;12.396;2022-11-10T13:34:43;101146.31;;;16.29;98.22
54850;BME280;47660;51.334;12.396;2022-11-10T13:37:44;101150.81;;;15.67;100.00
54850;BME280;47660;51.334;12.396;2022-11-10T13:45:42;101147.75;;;15.98;100.00
54850;BME280;47660;51.334;12.396;2022-11-10T13:54:06;101152.88;;;16.25;98.03
54850;BME280;47660;51.334;12.396;2022-11-10T13:58:50;101150.84;;;16.04;99.42
54850;BME280;47660;51.334;12.396;2022-11-10T14:08:40;101186.63;;;16.41;97.06
54850;BME280;47660;51.334;12.396;2022-11-10T14:14:17;101190.38;;;16.14;98.16
54850;BME280;47660;51.334;12.396;2022-11-10T14:16:46;101183.56;;;16.10;98.91
54850;BME280;47660;51.334;12.396;2022-11-10T14:21:48;101185.13;;;15.75;100.00
54850;BME280;47660;51.334;12.396;2022-11-10T14:24:19;101184.97;;;16.02;100.00
54850;BME280;47660;51.334;12.396;2022-11-10T14:26:53;101191.75;;;15.82;100.00
54850;BME280;47660;51.334;12.396;2022-11-10T14:29:33;101209.47;;;15.72;100.00
54850;BME280;47660;51.334;12.396;2022-11-10T14:32:04;101201.28;;;15.99;100.00
54850;BME280;47660;51.334;12.396;2022-11-10T14:34:44;101208.16;;;15.78;100.00
54850;BME280;47660;51.334;12.396;2022-11-10T14:37:14;101214.03;;;15.96;100.00